createdAt,value
2018-09-14T00:00:00.605Z,2.20
2018-09-14T00:01:01.006Z,1.60
2018-09-14T00:02:00.602Z,2.30
2018-09-14T00:03:00.595Z,1.90
2018-09-14T00:04:00.592Z,2.00
2018-09-14T00:05:00.591Z,1.90
2018-09-14T00:06:00.585Z,2.10
2018-09-14T00:07:01.222Z,2.00
2018-09-14T00:08:48.911Z,2.10
2018-09-14T00:09:48.909Z,2.00
2018-09-14T00:10:48.906Z,1.70
2018-09-14T00:11:48.949Z,1.30
2018-09-14T00:12:48.899Z,1.90
2018-09-14T00:13:48.896Z,1.70
2018-09-14T00:14:48.894Z,1.70
2018-09-14T00:15:48.890Z,2.10
2018-09-14T00:16:48.888Z,1.90
2018-09-14T00:17:48.884Z,1.90
2018-09-14T00:18:48.881Z,1.80
2018-09-14T00:20:42.220Z,1.60
2018-09-14T00:21:42.216Z,2.00
2018-09-14T00:22:42.211Z,2.20
2018-09-14T00:23:42.210Z,1.40
2018-09-14T00:24:42.206Z,2.20
2018-09-14T00:25:42.206Z,1.60
2018-09-14T00:26:42.200Z,1.60
2018-09-14T00:27:42.200Z,1.50
2018-09-14T00:28:42.194Z,1.80
2018-09-14T00:29:42.195Z,2.00
2018-09-14T00:30:42.188Z,1.50
2018-09-14T00:31:42.184Z,2.10
2018-09-14T00:32:42.183Z,1.70
2018-09-14T00:33:42.179Z,2.00
2018-09-14T00:34:42.173Z,2.10
2018-09-14T00:35:42.170Z,1.70
2018-09-14T00:36:42.167Z,2.10
2018-09-14T00:37:42.166Z,2.50
2018-09-14T00:38:42.164Z,1.60
2018-09-14T00:39:42.157Z,2.00
2018-09-14T00:40:42.155Z,2.10
2018-09-14T00:41:42.151Z,2.50
2018-09-14T00:42:42.147Z,1.70
2018-09-14T00:43:42.145Z,2.20
2018-09-14T00:44:42.146Z,2.20
2018-09-14T00:45:42.138Z,1.60
2018-09-14T00:46:42.136Z,1.80
2018-09-14T00:47:42.134Z,1.40
2018-09-14T00:48:42.138Z,1.60
2018-09-14T00:49:42.125Z,1.80
2018-09-14T00:50:42.124Z,2.00
2018-09-14T00:51:42.119Z,2.00
2018-09-14T00:52:42.115Z,1.70
2018-09-14T00:53:42.114Z,1.40
2018-09-14T00:54:42.109Z,2.20
2018-09-14T00:55:42.107Z,2.30
2018-09-14T00:56:42.101Z,1.90
2018-09-14T00:57:42.100Z,2.60
2018-09-14T00:58:42.095Z,1.70
2018-09-14T00:59:42.093Z,1.60
2018-09-14T01:00:42.089Z,1.90
2018-09-14T01:01:42.085Z,1.90
2018-09-14T01:02:42.088Z,1.70
2018-09-14T01:03:42.079Z,1.50
2018-09-14T01:04:42.076Z,2.10
2018-09-14T01:05:42.072Z,2.00
2018-09-14T01:06:42.069Z,2.00
2018-09-14T01:07:42.065Z,1.60
2018-09-14T01:08:42.063Z,1.90
2018-09-14T01:09:42.060Z,1.60
2018-09-14T01:10:42.057Z,1.80
2018-09-14T01:11:42.051Z,2.20
2018-09-14T01:12:42.047Z,2.60
2018-09-14T01:13:42.045Z,1.90
2018-09-14T01:14:42.041Z,2.00
2018-09-14T01:15:42.038Z,1.70
2018-09-14T01:16:42.035Z,1.80
2018-09-14T01:17:42.030Z,1.70
2018-09-14T01:18:42.029Z,2.10
2018-09-14T01:19:42.024Z,1.90
2018-09-14T01:20:42.026Z,2.10
2018-09-14T01:21:42.017Z,1.70
2018-09-14T01:22:42.012Z,2.00
2018-09-14T01:23:42.011Z,2.30
2018-09-14T01:24:42.005Z,1.80
2018-09-14T01:25:42.002Z,1.90
2018-09-14T01:26:41.999Z,2.00
2018-09-14T01:27:41.995Z,1.60
2018-09-14T01:28:41.991Z,2.00
2018-09-14T01:29:41.992Z,2.00
2018-09-14T01:30:41.987Z,2.00
2018-09-14T01:31:41.980Z,1.50
2018-09-14T01:32:41.979Z,2.10
2018-09-14T01:33:41.972Z,1.40
2018-09-14T01:34:41.970Z,2.00
2018-09-14T01:35:41.967Z,1.60
2018-09-14T01:36:41.963Z,2.10
2018-09-14T01:37:41.960Z,1.90
2018-09-14T01:38:41.955Z,1.80
2018-09-14T01:39:41.951Z,2.00
2018-09-14T01:40:41.949Z,1.90
2018-09-14T01:41:41.945Z,2.20
2018-09-14T01:42:41.941Z,2.40
2018-09-14T01:43:41.939Z,2.10
2018-09-14T01:44:41.934Z,2.30
2018-09-14T01:45:41.930Z,1.90
2018-09-14T01:46:41.926Z,2.10
2018-09-14T01:47:41.924Z,1.70
2018-09-14T01:48:41.919Z,1.70
2018-09-14T01:49:41.925Z,1.90
2018-09-14T01:50:41.910Z,2.40
2018-09-14T01:51:41.908Z,2.10
2018-09-14T01:52:41.905Z,2.00
2018-09-14T01:53:41.901Z,2.60
2018-09-14T01:54:41.898Z,1.90
2018-09-14T01:55:41.895Z,1.50
2018-09-14T01:56:41.890Z,2.00
2018-09-14T01:57:41.891Z,1.70
2018-09-14T01:58:41.883Z,1.60
2018-09-14T01:59:41.878Z,2.10
2018-09-14T02:00:41.875Z,1.50
2018-09-14T02:01:41.873Z,1.70
2018-09-14T02:02:41.867Z,1.90
2018-09-14T02:03:41.865Z,2.00
2018-09-14T02:04:41.861Z,2.20
2018-09-14T02:05:41.857Z,2.00
2018-09-14T02:06:41.852Z,1.70
2018-09-14T02:07:41.848Z,1.70
2018-09-14T02:08:41.846Z,1.70
2018-09-14T02:09:41.844Z,1.20
2018-09-14T02:10:41.838Z,1.70
2018-09-14T02:11:41.833Z,1.70
2018-09-14T02:12:41.830Z,1.90
2018-09-14T02:13:41.826Z,1.50
2018-09-14T02:14:41.823Z,1.60
2018-09-14T02:15:41.817Z,1.50
2018-09-14T02:16:41.815Z,1.90
2018-09-14T02:17:41.811Z,1.50
2018-09-14T02:18:41.807Z,1.80
2018-09-14T02:19:41.803Z,1.80
2018-09-14T02:20:41.799Z,1.60
2018-09-14T02:21:41.795Z,1.50
2018-09-14T02:22:41.792Z,1.50
2018-09-14T02:23:41.787Z,1.70
2018-09-14T02:24:41.782Z,1.60
2018-09-14T02:25:41.825Z,1.70
2018-09-14T02:26:41.775Z,1.60
2018-09-14T02:27:41.772Z,1.20
2018-09-14T02:28:41.769Z,2.20
2018-09-14T02:29:41.764Z,1.80
2018-09-14T02:30:41.758Z,1.20
2018-09-14T02:31:41.757Z,1.70
2018-09-14T02:32:41.751Z,1.20
2018-09-14T02:33:41.749Z,1.20
2018-09-14T02:34:41.744Z,1.20
2018-09-14T02:35:41.739Z,1.20
2018-09-14T02:36:41.740Z,1.30
2018-09-14T02:37:41.733Z,1.60
2018-09-14T02:38:41.725Z,1.40
2018-09-14T02:39:41.726Z,1.20
2018-09-14T02:40:41.720Z,1.30
2018-09-14T02:41:41.717Z,1.20
2018-09-14T02:42:41.713Z,1.30
2018-09-14T02:43:41.707Z,1.40
2018-09-14T02:44:41.704Z,1.30
2018-09-14T02:45:41.701Z,1.30
2018-09-14T02:46:41.695Z,1.40
2018-09-14T02:47:41.692Z,1.60
2018-09-14T02:48:41.690Z,1.20
2018-09-14T02:49:41.683Z,1.20
2018-09-14T02:50:41.679Z,2.10
2018-09-14T02:51:41.675Z,1.20
2018-09-14T02:52:41.673Z,1.40
2018-09-14T02:53:41.669Z,1.30
2018-09-14T02:54:41.663Z,1.60
2018-09-14T02:55:41.662Z,1.10
2018-09-14T02:56:41.656Z,1.40
2018-09-14T02:57:41.652Z,1.10
2018-09-14T02:58:41.647Z,1.40
2018-09-14T02:59:41.645Z,1.00
2018-09-14T03:00:41.646Z,1.40
2018-09-14T03:01:41.635Z,1.50
2018-09-14T03:02:41.639Z,1.60
2018-09-14T03:03:41.627Z,1.20
2018-09-14T03:04:41.627Z,1.20
2018-09-14T03:05:41.620Z,1.30
2018-09-14T03:06:41.614Z,1.30
2018-09-14T03:07:41.611Z,1.00
2018-09-14T03:08:41.606Z,1.30
2018-09-14T03:09:41.601Z,1.30
2018-09-14T03:10:41.597Z,1.00
2018-09-14T03:11:41.594Z,1.10
2018-09-14T03:12:41.591Z,1.40
2018-09-14T03:13:41.586Z,1.10
2018-09-14T03:14:41.581Z,1.70
2018-09-14T03:15:41.576Z,1.20
2018-09-14T03:16:41.574Z,1.20
2018-09-14T03:17:41.569Z,1.70
2018-09-14T03:18:41.567Z,1.60
2018-09-14T03:19:41.563Z,1.00
2018-09-14T03:20:41.556Z,1.30
2018-09-14T03:21:41.553Z,1.30
2018-09-14T03:22:41.547Z,1.20
2018-09-14T03:23:41.544Z,1.40
2018-09-14T03:24:41.539Z,1.20
2018-09-14T03:25:41.536Z,1.50
2018-09-14T03:26:41.530Z,0.80
2018-09-14T03:27:41.527Z,1.30
2018-09-14T03:28:41.522Z,1.90
2018-09-14T03:29:41.516Z,1.30
2018-09-14T03:30:41.515Z,1.00
2018-09-14T03:31:41.508Z,1.70
2018-09-14T03:32:41.506Z,0.90
2018-09-14T03:33:41.502Z,1.40
2018-09-14T03:34:41.496Z,1.40
2018-09-14T03:35:41.493Z,1.20
2018-09-14T03:36:41.487Z,1.30
2018-09-14T03:37:41.483Z,1.60
2018-09-14T03:38:41.479Z,0.90
2018-09-14T03:39:41.474Z,1.10
2018-09-14T03:40:41.470Z,1.10
2018-09-14T03:41:41.466Z,1.20
2018-09-14T03:42:41.460Z,1.30
2018-09-14T03:43:41.458Z,1.50
2018-09-14T03:44:41.454Z,1.60
2018-09-14T03:45:41.449Z,1.30
2018-09-14T03:46:41.443Z,1.50
2018-09-14T03:47:41.440Z,1.20
2018-09-14T03:48:41.434Z,1.10
2018-09-14T03:49:41.430Z,1.20
2018-09-14T03:50:41.430Z,1.30
2018-09-14T03:51:41.420Z,1.40
2018-09-14T03:52:41.417Z,1.60
2018-09-14T03:53:41.413Z,1.30
2018-09-14T03:54:41.408Z,1.10
2018-09-14T03:55:41.404Z,1.60
2018-09-14T03:56:41.400Z,1.30
2018-09-14T03:57:41.396Z,1.00
2018-09-14T03:58:41.390Z,1.30
2018-09-14T03:59:41.384Z,1.50
2018-09-14T04:00:41.381Z,1.30
2018-09-14T04:01:41.377Z,1.30
2018-09-14T04:02:41.371Z,1.10
2018-09-14T04:03:41.369Z,1.20
2018-09-14T04:04:41.362Z,1.10
2018-09-14T04:05:41.360Z,1.40
2018-09-14T04:06:41.354Z,1.40
2018-09-14T04:07:41.409Z,1.10
2018-09-14T04:08:41.344Z,1.20
2018-09-14T04:09:41.341Z,1.00
2018-09-14T04:10:41.336Z,1.00
2018-09-14T04:11:41.332Z,1.60
2018-09-14T04:12:41.328Z,1.20
2018-09-14T04:13:41.322Z,1.00
2018-09-14T04:14:41.315Z,1.00
2018-09-14T04:15:41.312Z,1.30
2018-09-14T04:16:41.307Z,1.40
2018-09-14T04:17:41.303Z,1.30
2018-09-14T04:18:41.299Z,1.40
2018-09-14T04:19:41.295Z,1.40
2018-09-14T04:20:41.293Z,1.50
2018-09-14T04:21:41.284Z,1.20
2018-09-14T04:22:41.281Z,2.60
2018-09-14T04:23:41.358Z,1.20
2018-09-14T04:24:41.273Z,1.00
2018-09-14T04:25:41.266Z,1.10
2018-09-14T04:26:41.261Z,0.90
2018-09-14T04:27:41.259Z,1.30
2018-09-14T04:28:41.251Z,1.10
2018-09-14T04:29:41.248Z,1.20
2018-09-14T04:30:41.242Z,1.60
2018-09-14T04:31:41.237Z,1.20
2018-09-14T04:32:41.232Z,1.30
2018-09-14T04:33:41.233Z,1.40
2018-09-14T04:34:41.225Z,1.30
2018-09-14T04:35:41.219Z,1.10
2018-09-14T04:36:41.214Z,1.10
2018-09-14T04:37:41.210Z,1.20
2018-09-14T04:38:41.248Z,1.30
2018-09-14T04:39:41.199Z,1.20
2018-09-14T04:40:41.195Z,0.90
2018-09-14T04:41:41.191Z,1.40
2018-09-14T04:42:41.184Z,1.10
2018-09-14T04:43:41.183Z,1.10
2018-09-14T04:44:41.177Z,1.20
2018-09-14T04:45:41.171Z,1.40
2018-09-14T04:46:41.167Z,1.20
2018-09-14T04:47:41.160Z,1.80
2018-09-14T04:48:41.157Z,1.40
2018-09-14T04:49:41.155Z,1.30
2018-09-14T04:50:41.147Z,1.20
2018-09-14T04:51:41.196Z,1.40
2018-09-14T04:52:41.136Z,1.40
2018-09-14T04:53:41.132Z,1.30
2018-09-14T04:54:41.126Z,1.40
2018-09-14T04:55:41.121Z,1.00
2018-09-14T04:56:41.117Z,1.30
2018-09-14T04:57:41.111Z,1.60
2018-09-14T04:58:41.106Z,0.90
2018-09-14T04:59:41.101Z,1.00
2018-09-14T05:00:41.098Z,1.60
2018-09-14T05:01:41.094Z,1.20
2018-09-14T05:02:41.087Z,1.30
2018-09-14T05:03:41.082Z,1.10
2018-09-14T05:04:41.077Z,1.20
2018-09-14T05:05:41.073Z,1.50
2018-09-14T05:06:41.067Z,1.10
2018-09-14T05:07:41.073Z,1.10
2018-09-14T05:08:41.056Z,1.20
2018-09-14T05:09:41.052Z,0.90
2018-09-14T05:10:41.049Z,1.00
2018-09-14T05:11:41.043Z,1.30
2018-09-14T05:12:41.041Z,1.40
2018-09-14T05:13:41.032Z,1.00
2018-09-14T05:14:41.027Z,1.10
2018-09-14T05:15:41.021Z,0.80
2018-09-14T05:16:41.016Z,0.90
2018-09-14T05:17:41.013Z,0.80
2018-09-14T05:18:41.007Z,1.10
2018-09-14T05:19:41.002Z,1.30
2018-09-14T05:20:40.997Z,1.50
2018-09-14T05:21:40.993Z,1.10
2018-09-14T05:22:40.987Z,1.10
2018-09-14T05:23:40.982Z,1.10
2018-09-14T05:24:40.978Z,1.00
2018-09-14T05:25:40.973Z,1.00
2018-09-14T05:26:40.967Z,1.20
2018-09-14T05:27:40.962Z,1.00
2018-09-14T05:28:40.958Z,1.30
2018-09-14T05:29:40.952Z,0.80
2018-09-14T05:30:40.947Z,1.20
2018-09-14T05:31:40.943Z,0.80
2018-09-14T05:32:40.938Z,1.50
2018-09-14T05:33:40.934Z,1.10
2018-09-14T05:34:40.928Z,1.00
2018-09-14T05:35:40.924Z,1.30
2018-09-14T05:36:40.919Z,1.00
2018-09-14T05:37:40.913Z,0.90
2018-09-14T05:38:40.907Z,0.80
2018-09-14T05:39:40.901Z,1.00
2018-09-14T05:40:40.898Z,1.40
2018-09-14T05:41:40.897Z,0.80
2018-09-14T05:42:40.888Z,0.90
2018-09-14T05:43:40.882Z,1.10
2018-09-14T05:44:40.877Z,0.80
2018-09-14T05:45:40.896Z,1.00
2018-09-14T05:46:40.867Z,0.90
2018-09-14T05:47:40.862Z,1.10
2018-09-14T05:48:40.857Z,1.00
2018-09-14T05:49:40.853Z,1.90
2018-09-14T05:50:40.847Z,1.30
2018-09-14T05:51:40.843Z,1.30
2018-09-14T05:52:40.841Z,1.20
2018-09-14T05:53:40.834Z,1.10
2018-09-14T05:54:40.828Z,1.20
2018-09-14T05:55:40.826Z,1.00
2018-09-14T05:56:40.818Z,1.40
2018-09-14T05:57:40.813Z,1.50
2018-09-14T05:58:40.807Z,1.10
2018-09-14T05:59:40.804Z,1.70
2018-09-14T06:00:40.799Z,1.70
2018-09-14T06:01:40.795Z,1.30
2018-09-14T06:02:40.789Z,1.30
2018-09-14T06:03:40.785Z,1.30
2018-09-14T06:04:40.780Z,1.60
2018-09-14T06:05:40.779Z,1.10
2018-09-14T06:06:40.904Z,1.10
2018-09-14T06:07:40.764Z,1.70
2018-09-14T06:08:40.764Z,1.10
2018-09-14T06:09:40.755Z,1.40
2018-09-14T06:10:40.750Z,1.00
2018-09-14T06:11:40.745Z,1.00
2018-09-14T06:12:40.742Z,1.50
2018-09-14T06:13:40.737Z,1.30
2018-09-14T06:14:40.731Z,1.70
2018-09-14T06:15:40.725Z,1.20
2018-09-14T06:16:40.720Z,1.70
2018-09-14T06:17:40.718Z,1.20
2018-09-14T06:18:40.716Z,1.70
2018-09-14T06:19:40.708Z,1.40
2018-09-14T06:20:40.703Z,1.10
2018-09-14T06:21:40.699Z,1.50
2018-09-14T06:22:40.770Z,1.20
2018-09-14T06:23:40.695Z,1.40
2018-09-14T06:24:40.689Z,1.20
2018-09-14T06:25:40.681Z,1.20
2018-09-14T06:26:40.677Z,1.20
2018-09-14T06:27:40.673Z,1.70
2018-09-14T06:28:40.668Z,1.40
2018-09-14T06:29:40.664Z,1.70
2018-09-14T06:30:40.658Z,1.50
2018-09-14T06:31:40.654Z,0.90
2018-09-14T06:32:40.652Z,1.00
2018-09-14T06:33:40.650Z,1.50
2018-09-14T06:34:40.643Z,1.80
2018-09-14T06:35:40.637Z,1.80
2018-09-14T06:36:40.634Z,1.80
2018-09-14T06:37:40.630Z,1.90
2018-09-14T06:38:40.625Z,2.00
2018-09-14T06:39:40.629Z,2.50
2018-09-14T06:40:40.617Z,2.20
2018-09-14T06:41:40.613Z,2.80
2018-09-14T06:42:40.608Z,2.00
2018-09-14T06:43:40.605Z,2.40
2018-09-14T06:44:40.600Z,2.00
2018-09-14T06:45:40.598Z,2.00
2018-09-14T06:46:40.591Z,1.50
2018-09-14T06:47:40.588Z,1.60
2018-09-14T06:48:40.586Z,2.20
2018-09-14T06:49:40.582Z,1.50
2018-09-14T06:50:40.576Z,2.10
2018-09-14T06:51:40.573Z,1.90
2018-09-14T06:52:40.570Z,2.00
2018-09-14T06:53:40.567Z,2.30
2018-09-14T06:54:40.563Z,2.30
2018-09-14T06:55:40.559Z,1.80
2018-09-14T06:56:40.554Z,1.90
2018-09-14T06:57:40.552Z,1.80
2018-09-14T06:58:40.547Z,2.70
2018-09-14T06:59:40.543Z,3.00
2018-09-14T07:00:40.543Z,2.90
2018-09-14T07:01:40.536Z,2.30
2018-09-14T07:02:40.534Z,2.50
2018-09-14T07:03:40.529Z,2.90
2018-09-14T07:04:40.526Z,2.60
2018-09-14T07:05:40.523Z,2.10
2018-09-14T07:06:40.518Z,2.60
2018-09-14T07:07:40.515Z,2.40
2018-09-14T07:08:40.512Z,2.60
2018-09-14T07:09:40.509Z,2.60
2018-09-14T07:10:40.505Z,2.80
2018-09-14T07:11:40.510Z,2.90
2018-09-14T07:12:40.503Z,2.80
2018-09-14T07:13:40.498Z,2.60
2018-09-14T07:14:40.493Z,2.50
2018-09-14T07:15:40.488Z,2.50
2018-09-14T07:16:40.487Z,2.30
2018-09-14T07:17:40.482Z,2.50
2018-09-14T07:18:40.482Z,3.20
2018-09-14T07:19:40.479Z,2.50
2018-09-14T07:20:40.473Z,2.90
2018-09-14T07:21:40.505Z,2.60
2018-09-14T07:22:40.468Z,2.60
2018-09-14T07:23:40.464Z,3.50
2018-09-14T07:24:40.603Z,2.70
2018-09-14T07:25:40.483Z,2.70
2018-09-14T07:26:40.458Z,3.30
2018-09-14T07:27:40.454Z,4.30
2018-09-14T07:28:40.533Z,4.50
2018-09-14T07:29:40.462Z,4.30
2018-09-14T07:30:40.454Z,3.40
2018-09-14T07:31:40.490Z,2.70
2018-09-14T07:32:40.441Z,3.40
2018-09-14T07:33:40.438Z,2.20
2018-09-14T07:34:40.435Z,2.60
2018-09-14T07:35:40.432Z,3.30
2018-09-14T07:36:40.431Z,2.40
2018-09-14T07:37:40.427Z,3.00
2018-09-14T07:38:40.425Z,2.30
2018-09-14T07:39:40.422Z,2.70
2018-09-14T07:40:40.421Z,3.00
2018-09-14T07:41:40.416Z,3.00
2018-09-14T07:42:40.415Z,3.50
2018-09-14T07:43:40.413Z,3.30
2018-09-14T07:44:40.409Z,3.30
2018-09-14T07:45:40.407Z,3.40
2018-09-14T07:46:40.405Z,3.40
2018-09-14T07:47:40.402Z,3.30
2018-09-14T07:48:40.400Z,2.20
2018-09-14T07:49:40.399Z,2.80
2018-09-14T07:50:40.396Z,3.10
2018-09-14T07:51:40.393Z,3.20
2018-09-14T07:52:40.393Z,3.10
2018-09-14T07:53:40.390Z,3.20
2018-09-14T07:54:40.387Z,2.60
2018-09-14T07:55:40.386Z,4.40
2018-09-14T07:56:40.383Z,3.50
2018-09-14T07:57:40.381Z,3.80
2018-09-14T07:58:40.378Z,3.70
2018-09-14T07:59:40.379Z,4.40
2018-09-14T08:00:40.376Z,3.70
2018-09-14T08:01:40.374Z,3.30
2018-09-14T08:02:40.375Z,3.70
2018-09-14T08:03:40.369Z,3.20
2018-09-14T08:04:40.368Z,3.70
2018-09-14T08:05:40.367Z,3.40
2018-09-14T08:06:40.365Z,3.70
2018-09-14T08:07:40.362Z,4.60
2018-09-14T08:08:40.360Z,5.00
2018-09-14T08:09:40.359Z,4.70
2018-09-14T08:10:40.358Z,4.70
2018-09-14T08:11:40.361Z,4.80
2018-09-14T08:12:40.354Z,5.60
2018-09-14T08:13:40.354Z,4.70
2018-09-14T08:14:40.350Z,4.00
2018-09-14T08:15:40.349Z,4.60
2018-09-14T08:16:40.348Z,4.20
2018-09-14T08:17:40.347Z,4.40
2018-09-14T08:18:40.344Z,4.50
2018-09-14T08:19:40.343Z,4.40
2018-09-14T08:20:40.346Z,3.80
2018-09-14T08:21:40.455Z,3.80
2018-09-14T08:22:40.341Z,5.10
2018-09-14T08:23:40.339Z,4.20
2018-09-14T08:24:40.338Z,4.10
2018-09-14T08:25:40.337Z,4.20
2018-09-14T08:26:40.368Z,4.00
2018-09-14T08:27:40.334Z,3.80
2018-09-14T08:28:40.333Z,4.80
2018-09-14T08:29:40.333Z,4.50
2018-09-14T08:30:40.331Z,3.70
2018-09-14T08:31:40.388Z,3.80
2018-09-14T08:32:40.331Z,3.90
2018-09-14T08:33:40.329Z,3.60
2018-09-14T08:34:40.332Z,4.40
2018-09-14T08:35:40.332Z,4.50
2018-09-14T08:36:40.327Z,3.50
2018-09-14T08:37:40.327Z,3.70
2018-09-14T08:38:40.326Z,4.20
2018-09-14T08:39:40.324Z,4.00
2018-09-14T08:40:40.327Z,4.60
2018-09-14T08:41:40.323Z,3.90
2018-09-14T08:42:40.323Z,4.30
2018-09-14T08:43:40.322Z,4.80
2018-09-14T08:44:40.323Z,4.30
2018-09-14T08:45:40.322Z,3.70
2018-09-14T08:46:40.321Z,3.50
2018-09-14T08:47:40.323Z,3.90
2018-09-14T08:48:40.324Z,3.00
2018-09-14T08:49:40.324Z,3.00
2018-09-14T08:50:40.327Z,2.80
2018-09-14T08:51:40.326Z,3.40
2018-09-14T08:52:40.330Z,2.60
2018-09-14T08:53:40.392Z,2.90
2018-09-14T08:54:40.336Z,2.80
2018-09-14T08:55:40.339Z,3.10
2018-09-14T08:56:40.348Z,2.60
2018-09-14T08:57:40.350Z,2.40
2018-09-14T08:58:40.353Z,2.10
2018-09-14T08:59:40.358Z,3.00
2018-09-14T09:00:40.423Z,3.00
2018-09-14T09:01:40.374Z,3.10
2018-09-14T09:02:40.381Z,2.00
2018-09-14T09:03:40.383Z,2.70
2018-09-14T09:04:40.389Z,3.00
2018-09-14T09:05:40.397Z,2.60
2018-09-14T09:06:40.405Z,2.60
2018-09-14T09:07:40.413Z,2.20
2018-09-14T09:08:40.421Z,2.20
2018-09-14T09:09:40.429Z,2.20
2018-09-14T09:10:40.439Z,2.80
2018-09-14T09:11:40.448Z,2.60
2018-09-14T09:12:40.457Z,2.50
2018-09-14T09:13:40.468Z,2.90
2018-09-14T09:14:40.477Z,2.70
2018-09-14T09:15:40.486Z,2.70
2018-09-14T09:16:40.498Z,2.00
2018-09-14T09:17:40.515Z,2.30
2018-09-14T09:18:40.516Z,3.10
2018-09-14T09:19:40.528Z,2.30
2018-09-14T09:20:40.573Z,2.30
2018-09-14T09:21:40.551Z,2.40
2018-09-14T09:22:40.561Z,2.30
2018-09-14T09:23:40.572Z,2.10
2018-09-14T09:24:40.584Z,2.40
2018-09-14T09:25:40.595Z,2.30
2018-09-14T09:26:40.606Z,2.90
2018-09-14T09:27:40.620Z,2.50
2018-09-14T09:28:40.633Z,2.80
2018-09-14T09:29:40.643Z,2.00
2018-09-14T09:30:40.655Z,2.20
2018-09-14T09:31:40.667Z,2.40
2018-09-14T09:32:40.678Z,2.30
2018-09-14T09:33:40.694Z,2.50
2018-09-14T09:34:40.703Z,2.00
2018-09-14T09:35:40.715Z,2.10
2018-09-14T09:36:40.728Z,2.00
2018-09-14T09:37:40.740Z,2.40
2018-09-14T09:38:40.752Z,1.70
2018-09-14T09:39:40.764Z,1.80
2018-09-14T09:40:40.777Z,2.30
2018-09-14T09:41:40.789Z,1.80
2018-09-14T09:42:40.802Z,1.90
2018-09-14T09:43:40.831Z,2.10
2018-09-14T09:44:40.828Z,2.00
2018-09-14T09:45:40.841Z,2.10
2018-09-14T09:46:40.853Z,2.00
2018-09-14T09:47:40.865Z,1.70
2018-09-14T09:48:40.879Z,1.90
2018-09-14T09:49:40.896Z,2.60
2018-09-14T09:50:40.938Z,2.10
2018-09-14T09:51:40.917Z,2.50
2018-09-14T09:52:40.931Z,2.50
2018-09-14T09:53:40.944Z,2.40
2018-09-14T09:54:40.957Z,2.30
2018-09-14T09:55:40.969Z,5.30
2018-09-14T09:56:41.013Z,5.60
2018-09-14T09:57:40.998Z,3.10
2018-09-14T09:58:41.009Z,2.70
2018-09-14T09:59:41.022Z,2.90
2018-09-14T10:00:41.035Z,2.50
2018-09-14T10:01:41.049Z,2.30
2018-09-14T10:02:41.060Z,2.40
2018-09-14T10:03:41.100Z,2.00
2018-09-14T10:04:41.087Z,2.70
2018-09-14T10:05:41.100Z,2.70
2018-09-14T10:06:41.117Z,2.50
2018-09-14T10:07:41.126Z,2.70
2018-09-14T10:08:41.141Z,2.70
2018-09-14T10:09:41.152Z,2.00
2018-09-14T10:10:41.167Z,2.60
2018-09-14T10:11:41.179Z,2.20
2018-09-14T10:12:41.190Z,2.50
2018-09-14T10:13:41.202Z,2.70
2018-09-14T10:14:41.213Z,2.30
2018-09-14T10:15:41.227Z,2.80
2018-09-14T10:16:41.239Z,2.80
2018-09-14T10:17:41.250Z,2.70
2018-09-14T10:18:41.259Z,3.00
2018-09-14T10:19:41.273Z,2.80
2018-09-14T10:20:41.300Z,3.00
2018-09-14T10:21:41.303Z,2.90
2018-09-14T10:22:41.306Z,2.70
2018-09-14T10:23:41.318Z,3.10
2018-09-14T10:24:41.331Z,3.50
2018-09-14T10:25:41.341Z,3.50
2018-09-14T10:26:41.390Z,2.60
2018-09-14T10:27:41.364Z,2.70
2018-09-14T10:28:41.374Z,2.80
2018-09-14T10:29:41.386Z,2.70
2018-09-14T10:30:41.398Z,3.00
2018-09-14T10:31:41.410Z,3.70
2018-09-14T10:32:41.421Z,2.50
2018-09-14T10:33:41.437Z,2.50
2018-09-14T10:34:41.443Z,2.40
2018-09-14T10:35:41.456Z,3.10
2018-09-14T10:36:41.466Z,2.60
2018-09-14T10:37:41.479Z,2.80
2018-09-14T10:38:41.487Z,2.50
2018-09-14T10:39:41.539Z,3.00
2018-09-14T10:40:41.559Z,2.80
2018-09-14T10:41:41.520Z,3.00
2018-09-14T10:42:41.558Z,2.60
2018-09-14T10:43:41.541Z,2.80
2018-09-14T10:44:41.550Z,2.30
2018-09-14T10:45:41.562Z,3.90
2018-09-14T10:46:41.571Z,2.70
2018-09-14T10:47:41.581Z,2.90
2018-09-14T10:48:41.599Z,3.20
2018-09-14T10:49:41.603Z,3.00
2018-09-14T10:50:41.608Z,2.80
2018-09-14T10:51:41.617Z,3.50
2018-09-14T10:52:41.626Z,3.00
2018-09-14T10:53:41.635Z,3.00
2018-09-14T10:54:41.667Z,3.20
2018-09-14T10:55:41.650Z,3.50
2018-09-14T10:56:41.659Z,3.00
2018-09-14T10:57:41.667Z,3.30
2018-09-14T10:58:41.674Z,3.50
2018-09-14T10:59:41.683Z,3.20
2018-09-14T11:00:41.727Z,3.30
2018-09-14T11:01:41.697Z,3.30
2018-09-14T11:02:41.704Z,4.10
2018-09-14T11:03:41.712Z,3.30
2018-09-14T11:04:41.719Z,4.20
2018-09-14T11:05:41.725Z,3.50
2018-09-14T11:06:41.832Z,3.90
2018-09-14T11:07:41.738Z,3.30
2018-09-14T11:08:41.744Z,8.30
2018-09-14T11:09:41.752Z,4.10
2018-09-14T11:10:41.755Z,4.00
2018-09-14T11:11:41.763Z,4.00
2018-09-14T11:12:41.812Z,3.50
2018-09-14T11:13:41.776Z,3.20
2018-09-14T11:14:41.781Z,4.00
2018-09-14T11:15:41.791Z,3.80
2018-09-14T11:16:41.792Z,4.30
2018-09-14T11:17:41.799Z,4.00
2018-09-14T11:18:41.864Z,4.40
2018-09-14T11:19:41.809Z,4.50
2018-09-14T11:20:41.844Z,4.10
2018-09-14T11:21:41.819Z,3.80
2018-09-14T11:22:41.825Z,4.20
2018-09-14T11:23:41.880Z,4.30
2018-09-14T11:24:41.924Z,4.00
2018-09-14T11:25:41.842Z,4.70
2018-09-14T11:26:41.847Z,4.20
2018-09-14T11:27:41.851Z,4.50
2018-09-14T11:28:41.856Z,4.90
2018-09-14T11:29:41.863Z,4.80
2018-09-14T11:30:41.866Z,4.90
2018-09-14T11:31:41.871Z,4.90
2018-09-14T11:32:41.875Z,4.40
2018-09-14T11:33:41.882Z,5.00
2018-09-14T11:34:41.884Z,5.10
2018-09-14T11:35:41.890Z,4.80
2018-09-14T11:36:41.895Z,5.70
2018-09-14T11:37:41.928Z,5.30
2018-09-14T11:38:41.919Z,6.00
2018-09-14T11:39:41.909Z,6.00
2018-09-14T11:40:41.914Z,5.50
2018-09-14T11:41:41.919Z,5.50
2018-09-14T11:42:41.924Z,4.90
2018-09-14T11:43:41.929Z,4.80
2018-09-14T11:44:41.933Z,5.20
2018-09-14T11:45:41.939Z,5.40
2018-09-14T11:46:41.942Z,5.40
2018-09-14T11:47:41.946Z,5.10
2018-09-14T11:48:41.953Z,4.70
2018-09-14T11:49:41.957Z,5.60
2018-09-14T11:50:41.959Z,5.50
2018-09-14T11:51:41.969Z,5.30
2018-09-14T11:52:41.970Z,5.30
2018-09-14T11:53:41.976Z,4.60
2018-09-14T11:54:41.978Z,5.50
2018-09-14T11:55:41.982Z,5.20
2018-09-14T11:56:41.989Z,4.90
2018-09-14T11:57:41.992Z,5.70
2018-09-14T11:58:41.994Z,5.40
2018-09-14T11:59:42.000Z,5.10
2018-09-14T12:00:42.005Z,5.60
2018-09-14T12:01:42.008Z,5.20
2018-09-14T12:02:42.011Z,5.30
2018-09-14T12:03:42.016Z,5.60
2018-09-14T12:04:42.023Z,5.70
2018-09-14T12:05:42.025Z,6.00
2018-09-14T12:06:42.028Z,6.10
2018-09-14T12:07:42.031Z,5.90
2018-09-14T12:08:42.037Z,6.00
2018-09-14T12:09:42.040Z,6.00
2018-09-14T12:10:42.043Z,6.80
2018-09-14T12:11:42.048Z,6.80
2018-09-14T12:12:42.051Z,5.90
2018-09-14T12:13:42.083Z,6.10
2018-09-14T12:14:42.059Z,6.00
2018-09-14T12:15:42.062Z,6.10
2018-09-14T12:16:42.068Z,6.20
2018-09-14T12:17:42.069Z,6.90
2018-09-14T12:18:42.074Z,6.30
2018-09-14T12:19:42.079Z,5.70
2018-09-14T12:20:42.088Z,6.10
2018-09-14T12:21:42.090Z,6.30
2018-09-14T12:22:42.090Z,6.70
2018-09-14T12:23:42.093Z,5.80
2018-09-14T12:24:42.097Z,6.00
2018-09-14T12:25:42.101Z,4.90
2018-09-14T12:26:42.106Z,5.10
2018-09-14T12:27:42.108Z,6.50
2018-09-14T12:28:42.112Z,7.00
2018-09-14T12:29:42.116Z,6.40
2018-09-14T12:30:42.118Z,5.90
2018-09-14T12:31:42.123Z,6.00
2018-09-14T12:32:42.126Z,5.90
2018-09-14T12:33:42.132Z,5.00
2018-09-14T12:34:42.133Z,6.40
2018-09-14T12:35:42.149Z,6.00
2018-09-14T12:36:42.140Z,6.50
2018-09-14T12:37:42.145Z,7.50
2018-09-14T12:38:42.147Z,6.40
2018-09-14T12:39:42.153Z,6.10
2018-09-14T12:40:42.155Z,5.90
2018-09-14T12:41:42.159Z,5.50
2018-09-14T12:42:42.161Z,5.70
2018-09-14T12:43:42.165Z,6.00
2018-09-14T12:44:42.168Z,6.40
2018-09-14T12:45:42.174Z,6.10
2018-09-14T12:46:42.176Z,6.70
2018-09-14T12:47:42.180Z,5.40
2018-09-14T12:48:42.244Z,6.20
2018-09-14T12:49:42.187Z,4.80
2018-09-14T12:50:42.189Z,5.10
2018-09-14T12:51:42.193Z,5.40
2018-09-14T12:52:42.196Z,4.40
2018-09-14T12:53:42.199Z,4.40
2018-09-14T12:54:42.204Z,4.50
2018-09-14T12:55:42.207Z,3.90
2018-09-14T12:56:42.211Z,3.90
2018-09-14T12:57:42.214Z,3.80
2018-09-14T12:58:42.217Z,3.60
2018-09-14T12:59:42.222Z,3.90
2018-09-14T13:00:42.225Z,3.70
2018-09-14T13:01:42.229Z,3.50
2018-09-14T13:02:42.232Z,3.50
2018-09-14T13:03:42.234Z,3.60
2018-09-14T13:04:42.238Z,4.20
2018-09-14T13:05:42.242Z,3.80
2018-09-14T13:06:42.245Z,4.60
2018-09-14T13:07:42.248Z,4.80
2018-09-14T13:08:42.253Z,3.60
2018-09-14T13:09:42.255Z,3.90
2018-09-14T13:10:42.259Z,3.80
2018-09-14T13:11:42.263Z,4.30
2018-09-14T13:12:42.266Z,4.10
2018-09-14T13:13:42.269Z,3.80
2018-09-14T13:14:42.350Z,3.00
2018-09-14T13:15:42.275Z,3.40
2018-09-14T13:16:42.279Z,3.30
2018-09-14T13:17:42.283Z,3.50
2018-09-14T13:18:42.285Z,3.60
2018-09-14T13:19:42.290Z,3.40